This is the latest recevied weather packets stored in our database for station/object OK2ILA-10. If no packets are shown the sender has not sent any weather packets the latest 10 day(s).
| Time | Temp. | Humidity | Pressure | Rain* | Wind** | Luminosity | Snow |
|---|---|---|---|---|---|---|---|
| 1787827925 | 23.33° C | 53% | 1021.9 hPa | - | - | - | - |
| 1787827325 | 24.44° C | 52% | 1021.7 hPa | - | - | - | - |
| 1787826725 | 23.89° C | 54% | 1021.8 hPa | - | - | - | - |
| 1787826125 | 23.89° C | 53% | 1021.8 hPa | - | - | - | - |
| 1787825523 | 22.78° C | 56% | 1021.7 hPa | - | - | - | - |
| 1787823122 | 21.11° C | 61% | 1021.8 hPa | - | - | - | - |
| 1787822522 | 21.67° C | 59% | 1022 hPa | - | - | - | - |
| 1787821922 | 21.11° C | 60% | 1021.9 hPa | - | - | - | - |
| 1787821321 | 21.67° C | 58% | 1022 hPa | - | - | - | - |
| 1787820721 | 22.78° C | 57% | 1022 hPa | - | - | - | - |
| 1787820121 | 22.78° C | 56% | 1022 hPa | - | - | - | - |
| 1787819521 | 22.78° C | 56% | 1022 hPa | - | - | - | - |
| 1787818321 | 23.33° C | 52% | 1022.2 hPa | - | - | - | - |
| 1787816520 | 25° C | 53% | 1022.1 hPa | - | - | - | - |
| 1787813519 | 22.22° C | 62% | 1021.9 hPa | - | - | - | - |
| 1787812919 | 18.33° C | 71% | 1021.9 hPa | - | - | - | - |
| 1787812319 | 17.22° C | 76% | 1021.9 hPa | - | - | - | - |
| 1787811719 | 16.11° C | 79% | 1021.7 hPa | - | - | - | - |
| 1787811119 | 15.56° C | 80% | 1021.8 hPa | - | - | - | - |
| 1787810519 | 15.56° C | 81% | 1021.8 hPa | - | - | - | - |
| 1787809318 | 15° C | 83% | 1021.7 hPa | - | - | - | - |
| 1787808718 | 14.44° C | 84% | 1021.7 hPa | - | - | - | - |
| 1787808118 | 14.44° C | 85% | 1021.7 hPa | - | - | - | - |
| 1787807518 | 13.89° C | 86% | 1021.7 hPa | - | - | - | - |
| 1787806934 | 13.33° C | 86% | 1021.7 hPa | - | - | - | - |
* Rain since midnight (hover to see other rain measurements)
** Current wind speed in m/s (hover to see current wind gust speed)